Time;durP1;ratioP1;P1;durP2;ratioP2;P2;SDS_P1;SDS_P2;PMS_P1;PMS_P2;Temp;Humidity;BMP_temperature;BMP_pressure;BME280_temperature;BME280_humidity;BME280_pressure;Samples;Min_cycle;Max_cycle;Signal;HPM_P1;HPM_P2
2021/05/24 00:01:30;;;;;;;2.03;1.83;;;14.40;65.30;;;;;;5012069;28;20627;-48
2021/05/24 00:03:56;;;;;;;5.90;2.50;;;14.40;66.00;;;;;;5012229;28;20743;-49
2021/05/24 00:06:23;;;;;;;3.20;2.03;;;14.40;65.70;;;;;;5011564;28;20732;-48
2021/05/24 00:08:50;;;;;;;4.60;1.80;;;14.40;66.10;;;;;;5011064;28;20931;-48
2021/05/24 00:11:18;;;;;;;2.90;2.00;;;14.30;66.60;;;;;;5011890;28;20659;-48
2021/05/24 00:13:51;;;;;;;2.43;1.70;;;14.30;66.90;;;;;;5011079;28;20636;-48
2021/05/24 00:16:18;;;;;;;3.03;1.43;;;14.40;67.00;;;;;;5011663;28;20714;-48
2021/05/24 00:18:50;;;;;;;3.33;2.23;;;14.40;67.10;;;;;;5011597;28;20997;-49
2021/05/24 00:21:17;;;;;;;3.63;1.80;;;14.40;67.10;;;;;;5011472;28;20631;-48
2021/05/24 00:23:43;;;;;;;1.83;1.57;;;14.30;67.00;;;;;;5011325;28;20691;-47
2021/05/24 00:26:11;;;;;;;2.60;1.70;;;14.30;67.90;;;;;;5011559;28;20656;-49
2021/05/24 00:28:38;;;;;;;1.97;1.70;;;14.30;68.00;;;;;;5010867;28;20635;-48
2021/05/24 00:31:05;;;;;;;2.27;2.10;;;14.40;68.20;;;;;;5011383;28;20673;-48
2021/05/24 00:33:32;;;;;;;2.10;1.33;;;14.40;67.90;;;;;;5011409;28;20682;-48
2021/05/24 00:35:59;;;;;;;2.87;1.40;;;14.40;68.10;;;;;;5010939;28;20667;-48
2021/05/24 00:38:25;;;;;;;2.00;1.80;;;14.40;68.20;;;;;;5010560;28;20627;-48
2021/05/24 00:40:52;;;;;;;1.67;1.57;;;14.30;68.00;;;;;;5011261;28;20693;-48
2021/05/24 00:43:19;;;;;;;2.37;2.10;;;14.30;67.80;;;;;;5010721;28;20668;-48
2021/05/24 00:45:46;;;;;;;3.00;1.97;;;14.20;68.30;;;;;;5011013;28;20705;-47
2021/05/24 00:48:13;;;;;;;3.10;1.40;;;14.20;68.70;;;;;;5010491;28;20978;-47
2021/05/24 00:50:40;;;;;;;3.10;1.43;;;14.20;68.40;;;;;;5010765;28;20690;-48
2021/05/24 00:53:07;;;;;;;2.10;1.90;;;14.10;68.50;;;;;;5009954;28;20679;-47
2021/05/24 00:55:34;;;;;;;2.10;1.33;;;14.10;68.80;;;;;;5010738;28;20671;-48
2021/05/24 00:58:01;;;;;;;5.67;1.60;;;14.10;69.00;;;;;;5010713;28;20660;-47
2021/05/24 01:00:35;;;;;;;2.33;1.40;;;14.10;69.40;;;;;;5011572;28;20639;-48
2021/05/24 01:03:03;;;;;;;1.50;1.23;;;14.00;69.60;;;;;;5010672;28;21077;-48
2021/05/24 01:05:29;;;;;;;1.77;1.23;;;14.10;70.00;;;;;;5010589;28;20687;-48
2021/05/24 01:07:56;;;;;;;2.60;1.60;;;14.10;69.90;;;;;;5010324;28;20949;-48
2021/05/24 01:10:23;;;;;;;4.43;1.70;;;14.00;69.70;;;;;;5009766;28;20652;-50
2021/05/24 01:12:50;;;;;;;1.60;1.13;;;14.00;70.00;;;;;;5010555;28;20663;-49
2021/05/24 01:15:17;;;;;;;3.93;1.43;;;13.90;70.10;;;;;;5010499;28;21286;-49
2021/05/24 01:17:43;;;;;;;2.83;1.70;;;13.80;70.40;;;;;;5010433;28;20667;-49
2021/05/24 01:20:11;;;;;;;6.73;2.20;;;13.70;70.70;;;;;;5010355;28;20683;-49
2021/05/24 01:22:44;;;;;;;2.40;1.40;;;13.50;71.20;;;;;;5010409;28;20687;-49
2021/05/24 01:25:12;;;;;;;1.80;1.40;;;13.50;71.60;;;;;;5010233;28;20772;-49
2021/05/24 01:27:38;;;;;;;1.53;1.43;;;13.40;71.90;;;;;;5009831;28;20651;-49
2021/05/24 01:30:06;;;;;;;1.30;1.20;;;13.30;72.40;;;;;;5010689;28;20663;-49
2021/05/24 01:32:35;;;;;;;2.77;1.63;;;13.30;73.10;;;;;;5010226;28;20686;-49
2021/05/24 01:35:01;;;;;;;4.10;1.67;;;13.20;73.50;;;;;;5010814;28;20643;-49
2021/05/24 01:37:28;;;;;;;1.50;1.40;;;13.10;74.10;;;;;;5009940;28;20666;-49
2021/05/24 01:39:58;;;;;;;4.10;2.20;;;13.10;74.60;;;;;;5010493;28;20683;-49
2021/05/24 01:42:25;;;;;;;3.53;1.60;;;13.20;74.90;;;;;;5009733;28;20688;-49
2021/05/24 01:44:51;;;;;;;2.40;1.40;;;13.20;75.70;;;;;;5010436;28;20662;-49
2021/05/24 01:47:19;;;;;;;2.30;2.10;;;13.20;74.90;;;;;;5009965;28;21055;-49
2021/05/24 01:49:47;;;;;;;5.67;1.63;;;13.20;75.20;;;;;;5010512;28;20711;-49
2021/05/24 01:52:14;;;;;;;1.47;1.30;;;13.30;75.50;;;;;;5010488;28;21168;-49
2021/05/24 01:54:41;;;;;;;2.67;1.17;;;13.30;75.70;;;;;;5010150;28;21177;-49
2021/05/24 01:57:08;;;;;;;3.53;1.50;;;13.40;75.80;;;;;;5009508;28;20673;-47
2021/05/24 01:59:35;;;;;;;5.37;2.10;;;13.40;75.20;;;;;;5009808;28;20693;-48
2021/05/24 02:02:02;;;;;;;3.90;2.10;;;13.50;74.90;;;;;;5009266;28;20628;-49
2021/05/24 02:04:29;;;;;;;1.63;1.53;;;13.50;75.30;;;;;;5009778;28;20689;-49
2021/05/24 02:06:56;;;;;;;2.83;1.60;;;13.50;75.30;;;;;;5009922;28;20647;-49
2021/05/24 02:09:22;;;;;;;3.70;2.00;;;13.50;74.90;;;;;;5009589;28;20708;-48
2021/05/24 02:11:49;;;;;;;2.87;1.70;;;13.50;74.70;;;;;;5009518;28;20674;-48
2021/05/24 02:14:17;;;;;;;1.80;1.33;;;13.50;74.90;;;;;;5009872;28;20686;-48
2021/05/24 02:16:44;;;;;;;2.07;1.57;;;13.50;75.80;;;;;;5009948;28;20659;-48
2021/05/24 02:19:12;;;;;;;2.50;1.70;;;13.50;74.70;;;;;;5008684;28;21208;-48
2021/05/24 02:21:38;;;;;;;1.30;1.20;;;13.50;74.40;;;;;;5009698;28;20934;-49
2021/05/24 02:24:06;;;;;;;2.50;1.30;;;13.50;74.60;;;;;;5009445;28;20691;-48
2021/05/24 02:26:33;;;;;;;1.87;1.40;;;13.40;74.70;;;;;;5009654;28;20644;-48
2021/05/24 02:29:00;;;;;;;4.40;1.53;;;13.40;75.00;;;;;;5008807;28;20688;-48
2021/05/24 02:31:27;;;;;;;2.77;1.37;;;13.40;75.00;;;;;;5009880;28;20636;-48
2021/05/24 02:33:54;;;;;;;1.33;1.23;;;13.40;74.70;;;;;;5009650;28;20612;-49
2021/05/24 02:36:24;;;;;;;2.93;1.67;;;13.40;75.70;;;;;;5009109;28;20675;-49
2021/05/24 02:38:50;;;;;;;2.00;1.40;;;13.40;75.00;;;;;;5009516;28;20774;-48
2021/05/24 02:41:17;;;;;;;1.37;1.23;;;13.40;74.90;;;;;;5009259;28;20640;-48
2021/05/24 02:43:44;;;;;;;1.67;1.30;;;13.30;74.90;;;;;;5009452;28;20697;-49
2021/05/24 02:46:11;;;;;;;2.20;1.50;;;13.30;75.10;;;;;;5009364;28;20660;-48
2021/05/24 02:48:38;;;;;;;1.40;1.20;;;13.30;75.40;;;;;;5009459;28;21325;-49
2021/05/24 02:51:05;;;;;;;3.53;1.30;;;13.30;75.70;;;;;;5009175;28;21254;-48
2021/05/24 02:53:32;;;;;;;2.07;1.43;;;13.30;75.70;;;;;;5009208;28;20636;-48
2021/05/24 02:55:59;;;;;;;1.33;1.23;;;13.30;75.90;;;;;;5008819;28;20656;-48
2021/05/24 02:58:25;;;;;;;2.13;1.27;;;13.30;76.20;;;;;;5009078;28;21242;-48
2021/05/24 03:00:52;;;;;;;2.57;1.53;;;13.30;76.30;;;;;;5009276;28;20636;-49
2021/05/24 03:03:21;;;;;;;1.40;1.17;;;13.30;77.10;;;;;;5009083;28;20736;-48
2021/05/24 03:05:49;;;;;;;3.33;1.50;;;13.30;76.60;;;;;;5009221;28;20733;-48
2021/05/24 03:08:15;;;;;;;2.13;1.20;;;13.30;77.00;;;;;;5009109;28;20627;-48
2021/05/24 03:10:42;;;;;;;3.23;1.30;;;13.30;77.10;;;;;;5009507;28;20659;-49
2021/05/24 03:13:09;;;;;;;1.87;1.20;;;13.30;77.40;;;;;;5008325;28;20727;-48
2021/05/24 03:15:36;;;;;;;1.50;1.27;;;13.30;77.30;;;;;;5009209;28;20714;-49
2021/05/24 03:18:03;;;;;;;1.30;1.20;;;13.30;77.40;;;;;;5008800;28;20667;-48
2021/05/24 03:20:29;;;;;;;2.53;1.77;;;13.20;77.10;;;;;;5009260;28;20628;-48
2021/05/24 03:22:57;;;;;;;1.23;1.13;;;13.20;77.10;;;;;;5009314;28;20703;-48
2021/05/24 03:25:23;;;;;;;2.67;1.60;;;13.10;77.30;;;;;;5008833;28;20695;-48
2021/05/24 03:27:50;;;;;;;3.17;1.37;;;13.10;78.10;;;;;;5008447;28;21184;-48
2021/05/24 03:30:17;;;;;;;1.23;1.00;;;13.10;78.40;;;;;;5011166;28;20749;-49
2021/05/24 03:32:44;;;;;;;3.90;1.43;;;13.10;79.20;;;;;;5011674;28;20663;-49
2021/05/24 03:35:11;;;;;;;3.70;1.77;;;13.10;78.70;;;;;;5012230;28;20729;-48
2021/05/24 03:37:38;;;;;;;1.47;1.13;;;13.10;78.60;;;;;;5012071;28;20720;-47
2021/05/24 03:40:07;;;;;;;2.13;1.40;;;13.00;78.70;;;;;;5012413;28;20663;-48
2021/05/24 03:42:34;;;;;;;2.47;1.00;;;13.00;79.10;;;;;;5012355;28;20713;-48
2021/05/24 03:45:02;;;;;;;2.00;1.30;;;13.00;79.50;;;;;;5011958;28;20658;-48
2021/05/24 03:47:28;;;;;;;1.97;1.20;;;13.00;79.90;;;;;;5012386;28;20659;-48
2021/05/24 03:49:55;;;;;;;1.83;1.10;;;13.00;80.10;;;;;;5013513;28;20630;-48
2021/05/24 03:52:22;;;;;;;1.87;1.13;;;13.00;80.10;;;;;;5012491;28;20634;-48
2021/05/24 03:54:49;;;;;;;2.57;2.20;;;13.00;80.10;;;;;;5012158;28;20638;-48
2021/05/24 03:57:16;;;;;;;3.47;1.70;;;13.00;80.30;;;;;;5011865;28;20708;-48
2021/05/24 03:59:44;;;;;;;2.27;1.60;;;13.00;80.70;;;;;;5011894;28;20714;-49
2021/05/24 04:02:10;;;;;;;1.77;1.57;;;13.10;80.80;;;;;;5012066;28;20650;-49
2021/05/24 04:04:38;;;;;;;2.10;1.80;;;13.10;80.80;;;;;;5011787;28;20656;-48
2021/05/24 04:07:10;;;;;;;1.80;1.20;;;13.10;80.90;;;;;;5011723;28;20647;-49
2021/05/24 04:09:37;;;;;;;1.93;1.67;;;13.10;80.80;;;;;;5011775;28;20705;-49
2021/05/24 04:12:04;;;;;;;2.17;1.63;;;13.10;80.80;;;;;;5012162;28;20631;-49
2021/05/24 04:14:32;;;;;;;1.97;1.83;;;13.00;81.40;;;;;;5011906;28;20651;-49
2021/05/24 04:16:59;;;;;;;1.70;1.27;;;13.10;81.90;;;;;;5010701;28;20694;-48
2021/05/24 04:19:26;;;;;;;3.10;1.53;;;13.10;82.20;;;;;;5009974;28;20698;-48
2021/05/24 04:21:52;;;;;;;6.07;2.20;;;13.10;82.50;;;;;;5009704;28;20660;-49
2021/05/24 04:24:19;;;;;;;2.97;1.97;;;13.10;82.10;;;;;;5010018;28;21196;-49
2021/05/24 04:26:46;;;;;;;4.00;2.10;;;13.10;82.10;;;;;;5010781;28;20693;-49
2021/05/24 04:29:12;;;;;;;2.10;1.47;;;13.20;82.50;;;;;;5010156;28;20675;-49
2021/05/24 04:31:40;;;;;;;3.13;1.97;;;13.20;82.20;;;;;;5011065;28;20979;-48
2021/05/24 04:34:07;;;;;;;4.20;2.03;;;13.20;82.50;;;;;;5011535;28;20655;-49
2021/05/24 04:36:33;;;;;;;2.50;2.30;;;13.20;82.80;;;;;;5010963;28;20659;-48
2021/05/24 04:39:00;;;;;;;4.07;2.00;;;13.20;83.10;;;;;;5011048;28;20664;-48
2021/05/24 04:41:27;;;;;;;2.80;2.23;;;13.20;83.00;;;;;;5009835;28;20651;-49
2021/05/24 04:43:57;;;;;;;2.00;1.80;;;13.30;82.90;;;;;;5010892;28;20702;-48
2021/05/24 04:46:24;;;;;;;3.60;1.97;;;13.30;83.40;;;;;;5011019;28;20690;-48
2021/05/24 04:48:51;;;;;;;2.90;2.63;;;13.30;83.20;;;;;;5010786;28;20701;-49
2021/05/24 04:51:18;;;;;;;3.67;2.50;;;13.30;83.00;;;;;;5010954;28;20747;-48
2021/05/24 04:53:45;;;;;;;2.23;2.03;;;13.30;83.20;;;;;;5011027;28;21313;-48
2021/05/24 04:56:11;;;;;;;2.33;1.90;;;13.40;83.30;;;;;;5010693;28;20679;-49
2021/05/24 04:58:38;;;;;;;2.40;2.10;;;13.40;82.80;;;;;;5010086;28;20651;-48
2021/05/24 05:01:05;;;;;;;2.50;1.80;;;13.40;82.40;;;;;;5011081;28;20685;-48
2021/05/24 05:03:34;;;;;;;5.10;2.10;;;13.40;81.80;;;;;;5010764;28;20770;-49
2021/05/24 05:06:01;;;;;;;3.27;2.03;;;13.30;81.70;;;;;;5010547;28;21081;-49
2021/05/24 05:08:28;;;;;;;2.50;1.90;;;13.30;82.00;;;;;;5010283;28;20656;-49
2021/05/24 05:10:55;;;;;;;2.77;2.33;;;13.30;82.20;;;;;;5009433;28;20686;-48
2021/05/24 05:13:22;;;;;;;2.77;2.57;;;13.30;82.20;;;;;;5013800;28;20631;-49
2021/05/24 05:15:48;;;;;;;4.87;2.07;;;13.40;81.90;;;;;;5015262;28;20990;-49
2021/05/24 05:18:15;;;;;;;2.20;1.80;;;13.40;81.30;;;;;;5014470;28;20627;-49
2021/05/24 05:20:42;;;;;;;2.90;1.87;;;13.40;81.20;;;;;;5011129;28;20659;-49
2021/05/24 05:23:09;;;;;;;1.97;1.87;;;13.50;81.20;;;;;;5010570;28;21198;-48
2021/05/24 05:25:36;;;;;;;3.80;2.03;;;13.50;80.70;;;;;;5010301;28;20730;-48
2021/05/24 05:28:03;;;;;;;1.80;1.50;;;13.50;80.30;;;;;;5009843;28;20662;-48
2021/05/24 05:30:30;;;;;;;2.43;1.83;;;13.60;80.40;;;;;;5010386;28;20669;-48
2021/05/24 05:32:56;;;;;;;2.87;1.70;;;13.60;80.50;;;;;;5009709;28;20729;-48
2021/05/24 05:35:24;;;;;;;2.03;1.80;;;13.70;80.30;;;;;;5009997;28;20706;-49
2021/05/24 05:37:52;;;;;;;2.23;1.90;;;13.80;80.40;;;;;;5010016;28;20664;-48
2021/05/24 05:40:19;;;;;;;2.20;1.43;;;13.80;79.90;;;;;;5009990;28;20659;-49
2021/05/24 05:42:46;;;;;;;1.83;1.73;;;13.80;78.50;;;;;;5009766;28;20660;-48
2021/05/24 05:45:13;;;;;;;5.00;1.63;;;13.80;75.90;;;;;;5009682;28;20718;-48
2021/05/24 05:47:40;;;;;;;3.03;1.43;;;13.90;75.90;;;;;;5009281;28;20666;-49
2021/05/24 05:50:08;;;;;;;5.43;2.40;;;14.00;76.50;;;;;;5010123;28;20671;-49
2021/05/24 05:52:35;;;;;;;3.17;1.70;;;14.00;75.30;;;;;;5010023;28;20632;-49
2021/05/24 05:55:02;;;;;;;4.60;1.70;;;14.00;74.70;;;;;;5009679;28;21287;-48
2021/05/24 05:57:30;;;;;;;4.83;1.60;;;14.10;73.90;;;;;;5009749;28;20655;-49
2021/05/24 05:59:56;;;;;;;1.77;1.63;;;14.10;73.40;;;;;;5009677;28;20663;-49
2021/05/24 06:02:23;;;;;;;1.87;1.63;;;14.20;72.50;;;;;;5009796;28;20795;-49
2021/05/24 06:04:50;;;;;;;2.97;2.00;;;14.20;72.10;;;;;;5010145;28;20659;-48
2021/05/24 06:07:16;;;;;;;4.23;1.53;;;14.20;72.00;;;;;;5007627;28;20624;-48
2021/05/24 06:09:43;;;;;;;1.63;1.53;;;14.30;72.00;;;;;;5009844;28;20624;-48
2021/05/24 06:12:10;;;;;;;3.20;2.13;;;14.30;72.10;;;;;;5009219;28;20938;-48
2021/05/24 06:14:38;;;;;;;3.97;1.80;;;14.30;72.10;;;;;;5009942;28;20664;-48
2021/05/24 06:17:04;;;;;;;2.50;1.43;;;14.30;72.00;;;;;;5009464;28;20643;-47
2021/05/24 06:19:31;;;;;;;1.57;1.43;;;14.30;71.90;;;;;;5008540;28;20789;-48
2021/05/24 06:21:58;;;;;;;1.67;1.57;;;14.30;72.00;;;;;;5009225;28;20931;-48
2021/05/24 06:24:25;;;;;;;2.60;1.60;;;14.40;71.90;;;;;;4998435;28;20689;-48
2021/05/24 06:26:51;;;;;;;3.50;1.60;;;14.40;72.00;;;;;;5007673;28;20688;-48
2021/05/24 06:29:22;;;;;;;1.70;1.60;;;14.30;71.60;;;;;;5005377;28;20767;-48
2021/05/24 06:31:50;;;;;;;3.70;1.60;;;14.30;72.40;;;;;;5009491;28;20616;-48
2021/05/24 06:34:17;;;;;;;3.73;1.80;;;14.30;72.20;;;;;;5009267;28;20660;-48
2021/05/24 06:36:43;;;;;;;2.13;1.60;;;14.40;72.20;;;;;;5008952;28;20691;-48
2021/05/24 06:39:10;;;;;;;2.17;1.97;;;14.40;71.70;;;;;;5009280;28;20679;-48
2021/05/24 06:41:37;;;;;;;2.00;1.63;;;14.50;71.50;;;;;;5009102;28;20655;-48
2021/05/24 06:44:04;;;;;;;1.57;1.47;;;14.50;71.40;;;;;;5009634;28;20691;-48
2021/05/24 06:46:31;;;;;;;2.83;1.60;;;14.50;71.40;;;;;;5009699;28;20823;-48
2021/05/24 06:48:58;;;;;;;5.70;2.00;;;14.60;71.20;;;;;;5008276;28;20712;-48
2021/05/24 06:51:25;;;;;;;3.60;1.50;;;14.60;71.10;;;;;;5005172;28;20656;-48
2021/05/24 06:53:52;;;;;;;1.70;1.50;;;14.70;70.90;;;;;;5006853;28;20648;-48
2021/05/24 06:56:19;;;;;;;2.50;2.30;;;14.80;71.10;;;;;;5009036;28;20683;-48
2021/05/24 06:58:46;;;;;;;3.37;1.83;;;14.80;70.80;;;;;;5007871;28;20643;-49
2021/05/24 07:01:13;;;;;;;4.33;1.80;;;14.80;70.90;;;;;;5009163;28;20958;-48
2021/05/24 07:03:39;;;;;;;4.80;1.87;;;14.90;70.70;;;;;;5008836;28;20802;-49
2021/05/24 07:06:07;;;;;;;2.47;1.53;;;15.00;70.10;;;;;;5012604;28;20690;-48
2021/05/24 07:08:34;;;;;;;2.33;1.90;;;15.10;69.10;;;;;;5012304;28;20660;-48
2021/05/24 07:11:00;;;;;;;2.67;1.53;;;15.20;68.70;;;;;;5012740;28;20647;-48
2021/05/24 07:13:27;;;;;;;4.10;1.80;;;15.30;68.40;;;;;;5012681;28;20666;-48
2021/05/24 07:15:54;;;;;;;2.80;2.40;;;15.40;68.20;;;;;;5011616;28;20691;-48
2021/05/24 07:18:20;;;;;;;3.17;2.33;;;15.50;67.70;;;;;;5012991;28;20643;-48
2021/05/24 07:20:47;;;;;;;3.77;2.77;;;15.60;67.10;;;;;;5012907;28;20632;-49
2021/05/24 07:23:15;;;;;;;2.13;1.80;;;15.70;66.70;;;;;;5012941;28;20627;-48
2021/05/24 07:25:41;;;;;;;1.57;1.47;;;15.80;65.30;;;;;;5012516;28;21004;-47
2021/05/24 07:28:09;;;;;;;2.50;1.30;;;15.90;64.50;;;;;;5012616;28;20992;-48
2021/05/24 07:30:36;;;;;;;3.03;1.83;;;16.00;64.50;;;;;;5011895;28;21164;-48
2021/05/24 07:33:03;;;;;;;4.93;2.53;;;16.10;64.30;;;;;;5012455;28;20611;-48
2021/05/24 07:35:29;;;;;;;1.57;1.37;;;16.20;64.40;;;;;;5005141;28;20680;-48
2021/05/24 07:37:56;;;;;;;2.17;1.30;;;16.20;63.80;;;;;;4992862;28;20616;-48
2021/05/24 07:40:24;;;;;;;1.53;1.43;;;16.30;62.90;;;;;;4992680;28;20992;-48
2021/05/24 07:42:50;;;;;;;2.70;1.73;;;16.40;63.00;;;;;;4992965;28;20970;-49
2021/05/24 07:45:17;;;;;;;2.07;1.67;;;16.50;63.20;;;;;;4992820;28;21275;-48
2021/05/24 07:47:44;;;;;;;2.70;1.00;;;16.70;62.60;;;;;;4998782;28;20718;-49
2021/05/24 07:50:11;;;;;;;4.43;1.40;;;17.00;60.40;;;;;;5012260;28;20655;-48
2021/05/24 07:52:38;;;;;;;1.97;1.40;;;17.20;59.30;;;;;;5012708;28;20670;-48
2021/05/24 07:55:05;;;;;;;2.13;1.50;;;17.30;59.30;;;;;;5012004;28;20648;-48
2021/05/24 07:57:35;;;;;;;1.27;1.00;;;17.40;58.50;;;;;;5011415;28;20643;-47
2021/05/24 08:00:02;;;;;;;3.00;1.40;;;17.40;57.20;;;;;;5012098;28;20730;-48
2021/05/24 08:02:28;;;;;;;1.33;1.23;;;17.40;57.10;;;;;;5012054;28;20655;-48
2021/05/24 08:04:55;;;;;;;1.97;1.20;;;17.60;57.10;;;;;;5011795;28;20758;-49
2021/05/24 08:07:22;;;;;;;2.37;1.63;;;17.80;57.60;;;;;;5011812;28;20655;-49
2021/05/24 08:09:50;;;;;;;1.47;1.37;;;18.10;55.30;;;;;;5012128;28;20754;-49
2021/05/24 08:12:17;;;;;;;1.43;1.20;;;18.30;54.50;;;;;;5011438;28;21262;-49
2021/05/24 08:14:45;;;;;;;1.83;1.33;;;18.40;53.90;;;;;;5011597;28;20631;-48
2021/05/24 08:17:11;;;;;;;1.60;1.50;;;18.60;53.60;;;;;;5005634;28;20656;-48
2021/05/24 08:19:38;;;;;;;4.90;1.20;;;18.70;51.60;;;;;;5004063;28;21172;-48
2021/05/24 08:22:05;;;;;;;3.23;1.63;;;18.80;51.60;;;;;;5011731;28;21005;-49
2021/05/24 08:24:32;;;;;;;1.37;1.23;;;18.90;50.60;;;;;;4992473;28;20699;-49
2021/05/24 08:26:58;;;;;;;1.30;1.00;;;18.90;50.50;;;;;;4992035;28;21207;-48
2021/05/24 08:29:25;;;;;;;0.80;0.80;;;19.00;49.60;;;;;;4993990;28;20994;-48
2021/05/24 08:31:53;;;;;;;1.53;1.00;;;19.10;48.40;;;;;;5011619;28;20616;-48
2021/05/24 08:34:19;;;;;;;1.03;0.73;;;19.00;47.00;;;;;;5011330;28;20651;-48
2021/05/24 08:36:46;;;;;;;0.80;0.73;;;19.00;46.90;;;;;;5010190;28;20825;-50
2021/05/24 08:39:13;;;;;;;2.93;0.77;;;18.90;46.80;;;;;;5010794;28;20648;-49
2021/05/24 08:41:40;;;;;;;2.07;1.07;;;18.90;46.70;;;;;;5011577;28;20667;-50
2021/05/24 08:44:08;;;;;;;2.20;1.00;;;18.90;46.40;;;;;;5010945;28;20690;-49
2021/05/24 08:46:35;;;;;;;1.73;1.03;;;18.90;46.50;;;;;;5010779;28;20718;-50
2021/05/24 08:49:04;;;;;;;1.17;0.97;;;19.10;47.10;;;;;;5009709;28;20667;-49
2021/05/24 08:51:30;;;;;;;3.80;1.63;;;19.30;46.40;;;;;;5010122;28;20663;-49
2021/05/24 08:53:57;;;;;;;1.30;1.20;;;19.40;45.20;;;;;;5010329;28;20656;-50
2021/05/24 08:56:24;;;;;;;0.87;0.70;;;19.50;45.40;;;;;;5010902;28;20751;-50
2021/05/24 08:58:51;;;;;;;1.10;0.70;;;19.60;45.10;;;;;;5010796;28;20667;-48
2021/05/24 09:01:17;;;;;;;2.20;1.00;;;19.60;43.50;;;;;;5010736;28;20664;-48
2021/05/24 09:03:47;;;;;;;1.53;0.90;;;19.50;44.40;;;;;;5010844;28;20667;-48
2021/05/24 09:06:15;;;;;;;1.10;0.90;;;19.60;44.80;;;;;;5010659;28;20679;-49
2021/05/24 09:08:42;;;;;;;2.03;1.27;;;19.70;44.60;;;;;;5010818;28;20651;-49
2021/05/24 09:11:24;;;;;;;0.70;0.70;;;19.70;44.40;;;;;;5010728;28;20666;-48
2021/05/24 09:13:51;;;;;;;1.43;1.00;;;19.90;43.80;;;;;;5011045;28;20702;-49
2021/05/24 09:16:26;;;;;;;1.53;1.43;;;20.00;43.70;;;;;;5011184;28;20678;-48
2021/05/24 09:19:13;;;;;;;1.43;1.20;;;19.90;44.10;;;;;;5010721;28;20681;-49
2021/05/24 09:21:48;;;;;;;0.80;0.80;;;19.90;44.50;;;;;;5010716;28;20659;-48
2021/05/24 09:24:26;;;;;;;3.80;1.37;;;19.90;44.90;;;;;;5010434;28;20790;-49
2021/05/24 09:26:53;;;;;;;4.40;1.40;;;20.00;45.00;;;;;;5009765;28;20722;-49
2021/05/24 09:29:23;;;;;;;3.70;1.57;;;20.30;45.30;;;;;;5009801;28;20647;-49
2021/05/24 09:32:14;;;;;;;4.00;1.47;;;20.50;45.00;;;;;;5010662;28;20660;-49
2021/05/24 09:34:42;;;;;;;2.30;1.33;;;20.90;44.00;;;;;;5011548;28;20631;-50
2021/05/24 09:37:10;;;;;;;1.77;1.10;;;21.30;43.70;;;;;;5012007;28;20698;-50
2021/05/24 09:39:37;;;;;;;2.63;1.40;;;21.60;43.10;;;;;;5010037;28;20627;-52
2021/05/24 09:42:07;;;;;;;1.90;1.30;;;21.90;42.40;;;;;;5012362;28;20623;-50
2021/05/24 09:44:34;;;;;;;1.60;1.20;;;21.90;41.90;;;;;;5011646;28;20683;-49
2021/05/24 09:47:01;;;;;;;2.20;1.33;;;21.90;40.60;;;;;;5012390;28;21080;-49
2021/05/24 09:49:29;;;;;;;1.50;0.90;;;21.60;40.20;;;;;;5011479;28;21184;-49
2021/05/24 09:51:56;;;;;;;1.43;1.17;;;21.30;40.70;;;;;;5011645;28;20627;-49
2021/05/24 09:54:29;;;;;;;1.70;1.33;;;21.00;41.50;;;;;;5010041;28;20786;-48
2021/05/24 09:56:56;;;;;;;3.20;1.20;;;20.90;41.30;;;;;;5010451;28;20667;-48
2021/05/24 09:59:23;;;;;;;1.80;1.10;;;20.70;41.40;;;;;;5010792;28;20706;-49
2021/05/24 10:01:52;;;;;;;1.40;0.90;;;20.80;41.00;;;;;;5011722;28;20632;-50
2021/05/24 10:04:20;;;;;;;2.63;1.30;;;20.80;41.70;;;;;;5011492;28;20706;-49
2021/05/24 10:06:47;;;;;;;2.77;1.07;;;20.90;41.80;;;;;;5010964;28;20663;-49
2021/05/24 10:09:16;;;;;;;1.77;1.20;;;21.00;40.90;;;;;;5011425;28;20627;-49
2021/05/24 10:11:44;;;;;;;1.90;1.17;;;21.10;39.50;;;;;;5011511;28;20701;-49
2021/05/24 10:14:12;;;;;;;1.50;0.87;;;21.30;36.80;;;;;;5011210;28;20632;-49
2021/05/24 10:16:39;;;;;;;1.80;1.60;;;21.40;36.80;;;;;;5011452;28;20694;-48
2021/05/24 10:19:06;;;;;;;2.00;1.47;;;21.60;37.50;;;;;;5010861;28;20624;-50
2021/05/24 10:21:33;;;;;;;1.20;1.00;;;21.70;37.90;;;;;;5011631;28;20978;-50
2021/05/24 10:24:00;;;;;;;1.63;1.20;;;21.90;38.20;;;;;;5010926;28;20632;-51
2021/05/24 10:26:27;;;;;;;1.73;1.20;;;22.10;38.40;;;;;;5010778;28;21066;-50
2021/05/24 10:28:55;;;;;;;2.70;1.10;;;22.30;37.70;;;;;;5010648;28;20667;-50
2021/05/24 10:31:23;;;;;;;1.93;1.07;;;22.50;37.10;;;;;;5011406;28;20654;-49
2021/05/24 10:33:50;;;;;;;0.80;0.73;;;22.60;36.70;;;;;;5010996;28;20612;-50
2021/05/24 10:36:19;;;;;;;2.40;1.00;;;22.60;36.30;;;;;;5010808;28;20667;-48
2021/05/24 10:39:01;;;;;;;1.33;1.23;;;22.50;36.50;;;;;;5010940;28;20662;-50
2021/05/24 10:41:47;;;;;;;1.50;0.93;;;22.50;36.80;;;;;;5015409;28;20651;-49
2021/05/24 10:44:15;;;;;;;1.80;0.90;;;22.40;35.50;;;;;;5014813;28;20694;-51
2021/05/24 10:46:42;;;;;;;1.47;0.73;;;22.40;35.30;;;;;;5014820;28;20660;-50
2021/05/24 10:49:25;;;;;;;1.77;1.00;;;22.20;34.60;;;;;;5014402;28;20667;-50
2021/05/24 10:52:08;;;;;;;2.50;1.53;;;22.10;35.90;;;;;;5014597;28;21051;-50
2021/05/24 10:54:39;;;;;;;0.97;0.80;;;22.20;34.90;;;;;;5014724;28;21113;-49
2021/05/24 10:57:16;;;;;;;3.50;1.70;;;22.30;34.60;;;;;;5014522;28;20660;-51
2021/05/24 11:00:02;;;;;;;2.00;0.90;;;22.40;34.70;;;;;;5014465;28;20627;-50
2021/05/24 11:02:30;;;;;;;1.50;0.90;;;22.50;34.60;;;;;;5014897;28;20620;-50
2021/05/24 11:04:58;;;;;;;1.03;0.80;;;22.80;34.40;;;;;;5014141;28;20718;-50
2021/05/24 11:07:27;;;;;;;1.97;1.20;;;23.10;33.20;;;;;;5014117;28;20719;-49
2021/05/24 11:09:54;;;;;;;1.00;0.80;;;22.90;33.40;;;;;;5014462;28;20700;-50
2021/05/24 11:12:30;;;;;;;1.80;0.80;;;22.80;32.80;;;;;;5014236;28;20702;-50
2021/05/24 11:15:08;;;;;;;2.87;1.27;;;22.70;33.70;;;;;;5013445;28;20642;-50
2021/05/24 11:18:12;;;;;;;1.23;0.60;;;22.60;33.20;;;;;;5012385;28;21057;-50
2021/05/24 11:20:41;;;;;;;1.40;0.90;;;22.70;32.60;;;;;;5012882;28;20623;-50
2021/05/24 11:23:13;;;;;;;3.50;0.80;;;22.70;32.20;;;;;;5013151;28;20632;-50
2021/05/24 11:25:51;;;;;;;0.60;0.57;;;22.80;31.30;;;;;;5012734;28;20754;-50
2021/05/24 11:28:18;;;;;;;1.40;0.87;;;22.80;30.60;;;;;;5012410;28;20655;-50
2021/05/24 11:30:46;;;;;;;4.97;0.90;;;22.90;31.30;;;;;;5013355;28;20619;-51
2021/05/24 11:33:41;;;;;;;1.23;1.00;;;23.10;31.40;;;;;;5013956;28;21160;-50
2021/05/24 11:36:08;;;;;;;1.60;0.77;;;23.50;30.60;;;;;;5012242;28;21043;-50
2021/05/24 11:38:35;;;;;;;1.27;0.87;;;23.80;30.10;;;;;;5013686;28;20771;-50
2021/05/24 11:41:12;;;;;;;1.50;1.40;;;23.90;30.20;;;;;;5013541;28;20632;-50
2021/05/24 11:43:40;;;;;;;2.23;0.90;;;24.00;30.00;;;;;;5014171;28;20627;-51
2021/05/24 11:46:08;;;;;;;1.27;1.07;;;24.10;30.00;;;;;;5011757;28;20679;-50
2021/05/24 11:48:37;;;;;;;1.77;0.90;;;24.20;30.00;;;;;;5012979;28;20664;-50
2021/05/24 11:51:05;;;;;;;1.73;0.97;;;24.20;30.00;;;;;;5013016;28;20636;-49
2021/05/24 11:53:32;;;;;;;2.30;0.80;;;24.30;30.30;;;;;;5012922;28;21063;-49
2021/05/24 11:56:09;;;;;;;3.30;1.43;;;24.50;29.90;;;;;;5013178;28;20648;-50
2021/05/24 11:58:56;;;;;;;1.40;1.20;;;24.40;30.00;;;;;;5012600;28;20624;-50
2021/05/24 12:01:24;;;;;;;2.03;1.10;;;24.40;30.10;;;;;;5012608;28;20633;-50
2021/05/24 12:03:51;;;;;;;3.67;1.53;;;24.30;29.90;;;;;;5013219;28;20673;-50
2021/05/24 12:06:17;;;;;;;2.03;1.10;;;24.20;29.90;;;;;;5012712;28;20687;-48
2021/05/24 12:08:45;;;;;;;2.20;1.37;;;24.20;30.00;;;;;;5013035;28;20668;-50
2021/05/24 12:11:13;;;;;;;1.10;1.00;;;24.20;29.40;;;;;;5013000;28;21179;-50
2021/05/24 12:14:00;;;;;;;1.20;0.83;;;24.30;29.50;;;;;;5012774;28;20743;-50
2021/05/24 12:16:28;;;;;;;1.57;0.80;;;24.60;29.30;;;;;;5010590;28;20683;-50
2021/05/24 12:18:55;;;;;;;3.00;0.90;;;24.70;29.80;;;;;;5012361;28;20682;-51
2021/05/24 12:21:36;;;;;;;2.53;1.23;;;24.70;29.50;;;;;;5012484;28;20640;-50
2021/05/24 12:24:04;;;;;;;2.97;1.10;;;24.50;29.50;;;;;;5012477;28;20635;-50
2021/05/24 12:26:31;;;;;;;2.10;0.90;;;24.50;30.30;;;;;;5012213;28;20761;-49
2021/05/24 12:28:58;;;;;;;2.17;1.20;;;24.70;29.70;;;;;;5012357;28;20993;-49
2021/05/24 12:31:26;;;;;;;2.00;0.73;;;24.80;30.00;;;;;;5012500;28;20745;-49
2021/05/24 12:33:53;;;;;;;2.20;0.90;;;24.80;29.30;;;;;;5011376;28;20682;-49
2021/05/24 12:36:21;;;;;;;0.77;0.70;;;24.60;29.50;;;;;;5011477;28;20694;-49
2021/05/24 12:38:49;;;;;;;2.20;1.20;;;24.90;29.60;;;;;;5011733;28;20786;-50
2021/05/24 12:41:18;;;;;;;1.57;1.27;;;25.20;29.20;;;;;;5011595;28;20724;-49
2021/05/24 12:43:49;;;;;;;3.80;0.90;;;25.70;29.20;;;;;;5011318;28;20973;-49
2021/05/24 12:46:18;;;;;;;1.40;1.10;;;26.30;28.50;;;;;;5011630;28;21248;-49
2021/05/24 12:48:50;;;;;;;4.23;1.40;;;26.70;28.10;;;;;;5010524;28;20663;-49
2021/05/24 12:51:18;;;;;;;1.10;0.60;;;26.60;28.20;;;;;;5011541;28;20660;-48
2021/05/24 12:53:51;;;;;;;1.33;1.20;;;26.70;28.20;;;;;;5010774;28;20624;-49